sensor_id;sensor_type;location;lat;lon;timestamp;pressure;altitude;pressure_sealevel;temperature
12854;BMP180;6495;51.808;7.478;2023-05-21T00:02:24;101344.00;;;16.80
12854;BMP180;6495;51.808;7.478;2023-05-21T00:04:56;101340.00;;;16.80
12854;BMP180;6495;51.808;7.478;2023-05-21T00:07:24;101347.00;;;16.70
12854;BMP180;6495;51.808;7.478;2023-05-21T00:09:54;101347.00;;;16.70
12854;BMP180;6495;51.808;7.478;2023-05-21T00:12:23;101343.00;;;16.70
12854;BMP180;6495;51.808;7.478;2023-05-21T00:14:51;101347.00;;;16.70
12854;BMP180;6495;51.808;7.478;2023-05-21T00:17:21;101345.00;;;16.60
12854;BMP180;6495;51.808;7.478;2023-05-21T00:19:52;101340.00;;;16.60
12854;BMP180;6495;51.808;7.478;2023-05-21T00:22:20;101333.00;;;16.60
12854;BMP180;6495;51.808;7.478;2023-05-21T00:24:49;101344.00;;;16.60
12854;BMP180;6495;51.808;7.478;2023-05-21T00:27:18;101340.00;;;16.50
12854;BMP180;6495;51.808;7.478;2023-05-21T00:29:47;101324.00;;;16.50
12854;BMP180;6495;51.808;7.478;2023-05-21T00:32:15;101329.00;;;16.50
12854;BMP180;6495;51.808;7.478;2023-05-21T00:34:45;101321.00;;;16.50
12854;BMP180;6495;51.808;7.478;2023-05-21T00:37:13;101323.00;;;16.40
12854;BMP180;6495;51.808;7.478;2023-05-21T00:39:42;101329.00;;;16.40
12854;BMP180;6495;51.808;7.478;2023-05-21T00:42:11;101325.00;;;16.30
12854;BMP180;6495;51.808;7.478;2023-05-21T00:44:44;101316.00;;;16.30
12854;BMP180;6495;51.808;7.478;2023-05-21T00:47:13;101324.00;;;16.30
12854;BMP180;6495;51.808;7.478;2023-05-21T00:49:45;101318.00;;;16.20
12854;BMP180;6495;51.808;7.478;2023-05-21T00:52:14;101310.00;;;16.30
12854;BMP180;6495;51.808;7.478;2023-05-21T00:54:48;101309.00;;;16.20
12854;BMP180;6495;51.808;7.478;2023-05-21T00:57:17;101300.00;;;16.20
12854;BMP180;6495;51.808;7.478;2023-05-21T00:59:50;101309.00;;;16.20
12854;BMP180;6495;51.808;7.478;2023-05-21T01:02:18;101296.00;;;16.10
12854;BMP180;6495;51.808;7.478;2023-05-21T01:04:53;101297.00;;;16.10
12854;BMP180;6495;51.808;7.478;2023-05-21T01:07:22;101296.00;;;16.10
12854;BMP180;6495;51.808;7.478;2023-05-21T01:09:50;101301.00;;;16.10
12854;BMP180;6495;51.808;7.478;2023-05-21T01:12:20;101287.00;;;16.00
12854;BMP180;6495;51.808;7.478;2023-05-21T01:14:51;101288.00;;;16.00
12854;BMP180;6495;51.808;7.478;2023-05-21T01:17:20;101293.00;;;16.00
12854;BMP180;6495;51.808;7.478;2023-05-21T01:19:52;101296.00;;;16.00
12854;BMP180;6495;51.808;7.478;2023-05-21T01:22:21;101290.00;;;15.90
12854;BMP180;6495;51.808;7.478;2023-05-21T01:24:53;101294.00;;;15.90
12854;BMP180;6495;51.808;7.478;2023-05-21T01:27:24;101283.00;;;15.90
12854;BMP180;6495;51.808;7.478;2023-05-21T01:29:52;101288.00;;;15.80
12854;BMP180;6495;51.808;7.478;2023-05-21T01:32:31;101280.00;;;15.80
12854;BMP180;6495;51.808;7.478;2023-05-21T01:35:07;101283.00;;;15.80
12854;BMP180;6495;51.808;7.478;2023-05-21T01:37:48;101276.00;;;15.70
12854;BMP180;6495;51.808;7.478;2023-05-21T01:40:27;101276.00;;;15.70
12854;BMP180;6495;51.808;7.478;2023-05-21T01:42:58;101275.00;;;15.70
12854;BMP180;6495;51.808;7.478;2023-05-21T01:45:30;101283.00;;;15.70
12854;BMP180;6495;51.808;7.478;2023-05-21T01:47:59;101267.00;;;15.70
12854;BMP180;6495;51.808;7.478;2023-05-21T01:50:29;101272.00;;;15.60
12854;BMP180;6495;51.808;7.478;2023-05-21T01:52:57;101268.00;;;15.60
12854;BMP180;6495;51.808;7.478;2023-05-21T01:55:29;101277.00;;;15.60
12854;BMP180;6495;51.808;7.478;2023-05-21T01:58:00;101274.00;;;15.60
12854;BMP180;6495;51.808;7.478;2023-05-21T02:00:29;101272.00;;;15.60
12854;BMP180;6495;51.808;7.478;2023-05-21T02:02:58;101272.00;;;15.50
12854;BMP180;6495;51.808;7.478;2023-05-21T02:05:28;101272.00;;;15.50
12854;BMP180;6495;51.808;7.478;2023-05-21T02:07:57;101268.00;;;15.40
12854;BMP180;6495;51.808;7.478;2023-05-21T02:10:26;101265.00;;;15.40
12854;BMP180;6495;51.808;7.478;2023-05-21T02:12:55;101258.00;;;15.40
12854;BMP180;6495;51.808;7.478;2023-05-21T02:15:25;101261.00;;;15.40
12854;BMP180;6495;51.808;7.478;2023-05-21T02:17:53;101261.00;;;15.40
12854;BMP180;6495;51.808;7.478;2023-05-21T02:20:22;101250.00;;;15.40
12854;BMP180;6495;51.808;7.478;2023-05-21T02:22:50;101252.00;;;15.30
12854;BMP180;6495;51.808;7.478;2023-05-21T02:25:18;101255.00;;;15.30
12854;BMP180;6495;51.808;7.478;2023-05-21T02:27:47;101251.00;;;15.30
12854;BMP180;6495;51.808;7.478;2023-05-21T02:30:20;101251.00;;;15.20
12854;BMP180;6495;51.808;7.478;2023-05-21T02:32:49;101244.00;;;15.20
12854;BMP180;6495;51.808;7.478;2023-05-21T02:35:17;101244.00;;;15.20
12854;BMP180;6495;51.808;7.478;2023-05-21T02:37:45;101243.00;;;15.20
12854;BMP180;6495;51.808;7.478;2023-05-21T02:40:15;101247.00;;;15.20
12854;BMP180;6495;51.808;7.478;2023-05-21T02:42:43;101241.00;;;15.10
12854;BMP180;6495;51.808;7.478;2023-05-21T02:45:17;101243.00;;;15.10
12854;BMP180;6495;51.808;7.478;2023-05-21T02:47:47;101235.00;;;15.10
12854;BMP180;6495;51.808;7.478;2023-05-21T02:50:18;101236.00;;;15.00
12854;BMP180;6495;51.808;7.478;2023-05-21T02:52:54;101239.00;;;15.00
12854;BMP180;6495;51.808;7.478;2023-05-21T02:55:22;101234.00;;;15.00
12854;BMP180;6495;51.808;7.478;2023-05-21T02:57:51;101233.00;;;15.00
12854;BMP180;6495;51.808;7.478;2023-05-21T03:00:19;101241.00;;;14.90
12854;BMP180;6495;51.808;7.478;2023-05-21T03:02:49;101235.00;;;14.90
12854;BMP180;6495;51.808;7.478;2023-05-21T03:05:18;101241.00;;;14.90
12854;BMP180;6495;51.808;7.478;2023-05-21T03:07:46;101237.00;;;14.90
12854;BMP180;6495;51.808;7.478;2023-05-21T03:10:15;101232.00;;;14.90
12854;BMP180;6495;51.808;7.478;2023-05-21T03:12:45;101234.00;;;14.90
12854;BMP180;6495;51.808;7.478;2023-05-21T03:15:16;101236.00;;;14.90
12854;BMP180;6495;51.808;7.478;2023-05-21T03:17:51;101240.00;;;14.90
12854;BMP180;6495;51.808;7.478;2023-05-21T03:20:20;101226.00;;;14.90
12854;BMP180;6495;51.808;7.478;2023-05-21T03:22:48;101217.00;;;14.90
12854;BMP180;6495;51.808;7.478;2023-05-21T03:25:17;101227.00;;;14.80
12854;BMP180;6495;51.808;7.478;2023-05-21T03:27:46;101229.00;;;14.90
12854;BMP180;6495;51.808;7.478;2023-05-21T03:30:33;101225.00;;;14.80
12854;BMP180;6495;51.808;7.478;2023-05-21T03:33:28;101230.00;;;14.80
12854;BMP180;6495;51.808;7.478;2023-05-21T03:35:57;101239.00;;;14.80
12854;BMP180;6495;51.808;7.478;2023-05-21T03:38:28;101235.00;;;14.80
12854;BMP180;6495;51.808;7.478;2023-05-21T03:40:56;101232.00;;;14.70
12854;BMP180;6495;51.808;7.478;2023-05-21T03:43:24;101228.00;;;14.70
12854;BMP180;6495;51.808;7.478;2023-05-21T03:45:54;101232.00;;;14.70
12854;BMP180;6495;51.808;7.478;2023-05-21T03:48:42;101235.00;;;14.70
12854;BMP180;6495;51.808;7.478;2023-05-21T03:51:13;101235.00;;;14.70
12854;BMP180;6495;51.808;7.478;2023-05-21T03:53:41;101235.00;;;14.70
12854;BMP180;6495;51.808;7.478;2023-05-21T03:56:10;101235.00;;;14.70
12854;BMP180;6495;51.808;7.478;2023-05-21T03:58:38;101232.00;;;14.60
12854;BMP180;6495;51.808;7.478;2023-05-21T04:01:06;101235.00;;;14.60
12854;BMP180;6495;51.808;7.478;2023-05-21T04:03:36;101239.00;;;14.60
12854;BMP180;6495;51.808;7.478;2023-05-21T04:06:08;101224.00;;;14.60
12854;BMP180;6495;51.808;7.478;2023-05-21T04:08:40;101231.00;;;14.60
12854;BMP180;6495;51.808;7.478;2023-05-21T04:11:09;101228.00;;;14.60
12854;BMP180;6495;51.808;7.478;2023-05-21T04:13:37;101229.00;;;14.60
12854;BMP180;6495;51.808;7.478;2023-05-21T04:16:06;101234.00;;;14.50
12854;BMP180;6495;51.808;7.478;2023-05-21T04:18:35;101239.00;;;14.50
12854;BMP180;6495;51.808;7.478;2023-05-21T04:21:07;101234.00;;;14.50
12854;BMP180;6495;51.808;7.478;2023-05-21T04:23:37;101233.00;;;14.50
12854;BMP180;6495;51.808;7.478;2023-05-21T04:26:12;101239.00;;;14.50
12854;BMP180;6495;51.808;7.478;2023-05-21T04:28:42;101235.00;;;14.50
12854;BMP180;6495;51.808;7.478;2023-05-21T04:31:13;101236.00;;;14.50
12854;BMP180;6495;51.808;7.478;2023-05-21T04:33:41;101242.00;;;14.50
12854;BMP180;6495;51.808;7.478;2023-05-21T04:36:12;101241.00;;;14.50
12854;BMP180;6495;51.808;7.478;2023-05-21T04:38:45;101243.00;;;14.50
12854;BMP180;6495;51.808;7.478;2023-05-21T04:41:14;101246.00;;;14.60
12854;BMP180;6495;51.808;7.478;2023-05-21T04:43:44;101243.00;;;14.60
12854;BMP180;6495;51.808;7.478;2023-05-21T04:46:14;101242.00;;;14.60
12854;BMP180;6495;51.808;7.478;2023-05-21T04:48:42;101245.00;;;14.60
12854;BMP180;6495;51.808;7.478;2023-05-21T04:51:11;101243.00;;;14.70
12854;BMP180;6495;51.808;7.478;2023-05-21T04:53:40;101237.00;;;14.70
12854;BMP180;6495;51.808;7.478;2023-05-21T04:56:10;101249.00;;;14.70
12854;BMP180;6495;51.808;7.478;2023-05-21T04:58:38;101245.00;;;14.70
12854;BMP180;6495;51.808;7.478;2023-05-21T05:01:07;101239.00;;;14.70
12854;BMP180;6495;51.808;7.478;2023-05-21T05:03:35;101231.00;;;14.70
12854;BMP180;6495;51.808;7.478;2023-05-21T05:06:04;101230.00;;;14.70
12854;BMP180;6495;51.808;7.478;2023-05-21T05:08:33;101233.00;;;14.70
12854;BMP180;6495;51.808;7.478;2023-05-21T05:11:03;101232.00;;;14.70
12854;BMP180;6495;51.808;7.478;2023-05-21T05:13:33;101241.00;;;14.70
12854;BMP180;6495;51.808;7.478;2023-05-21T05:16:01;101237.00;;;14.70
12854;BMP180;6495;51.808;7.478;2023-05-21T05:18:29;101240.00;;;14.80
12854;BMP180;6495;51.808;7.478;2023-05-21T05:20:57;101230.00;;;14.80
12854;BMP180;6495;51.808;7.478;2023-05-21T05:23:26;101230.00;;;14.80
12854;BMP180;6495;51.808;7.478;2023-05-21T05:25:54;101234.00;;;14.80
12854;BMP180;6495;51.808;7.478;2023-05-21T05:28:22;101227.00;;;14.80
12854;BMP180;6495;51.808;7.478;2023-05-21T05:30:52;101228.00;;;14.80
12854;BMP180;6495;51.808;7.478;2023-05-21T05:33:29;101230.00;;;14.90
12854;BMP180;6495;51.808;7.478;2023-05-21T05:35:57;101226.00;;;14.90
12854;BMP180;6495;51.808;7.478;2023-05-21T05:38:25;101219.00;;;14.90
12854;BMP180;6495;51.808;7.478;2023-05-21T05:40:54;101223.00;;;14.90
12854;BMP180;6495;51.808;7.478;2023-05-21T05:43:24;101225.00;;;14.90
12854;BMP180;6495;51.808;7.478;2023-05-21T05:45:53;101214.00;;;14.90
12854;BMP180;6495;51.808;7.478;2023-05-21T05:48:22;101218.00;;;15.00
12854;BMP180;6495;51.808;7.478;2023-05-21T05:50:51;101208.00;;;15.00
12854;BMP180;6495;51.808;7.478;2023-05-21T05:53:24;101215.00;;;15.00
12854;BMP180;6495;51.808;7.478;2023-05-21T05:55:53;101214.00;;;15.00
12854;BMP180;6495;51.808;7.478;2023-05-21T05:58:21;101222.00;;;15.00
12854;BMP180;6495;51.808;7.478;2023-05-21T06:01:04;101213.00;;;15.00
12854;BMP180;6495;51.808;7.478;2023-05-21T06:03:32;101219.00;;;15.10
12854;BMP180;6495;51.808;7.478;2023-05-21T06:06:08;101209.00;;;15.10
12854;BMP180;6495;51.808;7.478;2023-05-21T06:08:38;101221.00;;;15.10
12854;BMP180;6495;51.808;7.478;2023-05-21T06:11:06;101213.00;;;15.10
12854;BMP180;6495;51.808;7.478;2023-05-21T06:13:34;101224.00;;;15.20
12854;BMP180;6495;51.808;7.478;2023-05-21T06:16:06;101219.00;;;15.20
12854;BMP180;6495;51.808;7.478;2023-05-21T06:18:36;101219.00;;;15.20
12854;BMP180;6495;51.808;7.478;2023-05-21T06:21:04;101218.00;;;15.30
12854;BMP180;6495;51.808;7.478;2023-05-21T06:23:34;101222.00;;;15.30
12854;BMP180;6495;51.808;7.478;2023-05-21T06:26:03;101205.00;;;15.30
12854;BMP180;6495;51.808;7.478;2023-05-21T06:28:32;101207.00;;;15.40
12854;BMP180;6495;51.808;7.478;2023-05-21T06:31:00;101212.00;;;15.40
12854;BMP180;6495;51.808;7.478;2023-05-21T06:33:31;101214.00;;;15.50
12854;BMP180;6495;51.808;7.478;2023-05-21T06:36:00;101218.00;;;15.50
12854;BMP180;6495;51.808;7.478;2023-05-21T06:38:28;101216.00;;;15.50
12854;BMP180;6495;51.808;7.478;2023-05-21T06:40:57;101215.00;;;15.50
12854;BMP180;6495;51.808;7.478;2023-05-21T06:43:44;101212.00;;;15.60
12854;BMP180;6495;51.808;7.478;2023-05-21T06:46:32;101213.00;;;15.60
12854;BMP180;6495;51.808;7.478;2023-05-21T06:49:06;101209.00;;;15.60
12854;BMP180;6495;51.808;7.478;2023-05-21T06:51:35;101215.00;;;15.60
12854;BMP180;6495;51.808;7.478;2023-05-21T06:54:04;101204.00;;;15.60
12854;BMP180;6495;51.808;7.478;2023-05-21T06:56:34;101208.00;;;15.70
12854;BMP180;6495;51.808;7.478;2023-05-21T06:59:11;101212.00;;;15.60
12854;BMP180;6495;51.808;7.478;2023-05-21T07:01:42;101216.00;;;15.60
12854;BMP180;6495;51.808;7.478;2023-05-21T07:04:17;101212.00;;;15.60
12854;BMP180;6495;51.808;7.478;2023-05-21T07:06:46;101212.00;;;15.70
12854;BMP180;6495;51.808;7.478;2023-05-21T07:09:15;101211.00;;;15.70
12854;BMP180;6495;51.808;7.478;2023-05-21T07:11:44;101221.00;;;15.80
12854;BMP180;6495;51.808;7.478;2023-05-21T07:14:15;101220.00;;;15.80
12854;BMP180;6495;51.808;7.478;2023-05-21T07:16:43;101218.00;;;15.80
12854;BMP180;6495;51.808;7.478;2023-05-21T07:19:15;101214.00;;;15.80
12854;BMP180;6495;51.808;7.478;2023-05-21T07:21:44;101216.00;;;15.90
12854;BMP180;6495;51.808;7.478;2023-05-21T07:24:12;101211.00;;;15.90
12854;BMP180;6495;51.808;7.478;2023-05-21T07:26:41;101212.00;;;16.00
12854;BMP180;6495;51.808;7.478;2023-05-21T07:29:11;101213.00;;;16.00
12854;BMP180;6495;51.808;7.478;2023-05-21T07:31:39;101224.00;;;16.10
12854;BMP180;6495;51.808;7.478;2023-05-21T07:34:08;101220.00;;;16.10
12854;BMP180;6495;51.808;7.478;2023-05-21T07:36:40;101221.00;;;16.10
12854;BMP180;6495;51.808;7.478;2023-05-21T07:39:08;101221.00;;;16.10
12854;BMP180;6495;51.808;7.478;2023-05-21T07:41:37;101213.00;;;16.20
12854;BMP180;6495;51.808;7.478;2023-05-21T07:44:10;101206.00;;;16.20
12854;BMP180;6495;51.808;7.478;2023-05-21T07:46:42;101211.00;;;16.30
12854;BMP180;6495;51.808;7.478;2023-05-21T07:49:11;101206.00;;;16.30
12854;BMP180;6495;51.808;7.478;2023-05-21T07:51:45;101216.00;;;16.50
12854;BMP180;6495;51.808;7.478;2023-05-21T07:54:56;101216.00;;;16.60
12854;BMP180;6495;51.808;7.478;2023-05-21T07:57:25;101217.00;;;16.60
12854;BMP180;6495;51.808;7.478;2023-05-21T07:59:57;101223.00;;;16.70
12854;BMP180;6495;51.808;7.478;2023-05-21T08:02:27;101222.00;;;16.70
12854;BMP180;6495;51.808;7.478;2023-05-21T08:13:23;101215.00;;;16.90
12854;BMP180;6495;51.808;7.478;2023-05-21T08:15:58;101219.00;;;17.00
12854;BMP180;6495;51.808;7.478;2023-05-21T08:18:55;101214.00;;;17.20
12854;BMP180;6495;51.808;7.478;2023-05-21T08:26:30;101229.00;;;17.20
12854;BMP180;6495;51.808;7.478;2023-05-21T08:39:38;101230.00;;;17.60
12854;BMP180;6495;51.808;7.478;2023-05-21T08:42:32;101225.00;;;17.70
12854;BMP180;6495;51.808;7.478;2023-05-21T08:45:05;101218.00;;;17.70
12854;BMP180;6495;51.808;7.478;2023-05-21T08:47:41;101221.00;;;17.70
12854;BMP180;6495;51.808;7.478;2023-05-21T08:50:12;101219.00;;;17.80
12854;BMP180;6495;51.808;7.478;2023-05-21T08:52:41;101217.00;;;17.90
12854;BMP180;6495;51.808;7.478;2023-05-21T08:55:13;101215.00;;;18.00
12854;BMP180;6495;51.808;7.478;2023-05-21T08:58:06;101216.00;;;18.10
12854;BMP180;6495;51.808;7.478;2023-05-21T09:00:55;101218.00;;;18.20
12854;BMP180;6495;51.808;7.478;2023-05-21T09:03:27;101214.00;;;18.30
12854;BMP180;6495;51.808;7.478;2023-05-21T09:05:58;101217.00;;;18.30
12854;BMP180;6495;51.808;7.478;2023-05-21T09:08:41;101225.00;;;18.30
12854;BMP180;6495;51.808;7.478;2023-05-21T09:11:26;101224.00;;;18.30
12854;BMP180;6495;51.808;7.478;2023-05-21T09:13:59;101221.00;;;18.40
12854;BMP180;6495;51.808;7.478;2023-05-21T09:16:38;101219.00;;;18.50
12854;BMP180;6495;51.808;7.478;2023-05-21T09:19:28;101220.00;;;18.60
12854;BMP180;6495;51.808;7.478;2023-05-21T09:22:02;101211.00;;;18.60
12854;BMP180;6495;51.808;7.478;2023-05-21T09:29:27;101211.00;;;18.70
12854;BMP180;6495;51.808;7.478;2023-05-21T09:36:16;101201.00;;;18.90
12854;BMP180;6495;51.808;7.478;2023-05-21T09:53:51;101203.00;;;19.30
12854;BMP180;6495;51.808;7.478;2023-05-21T10:00:42;101203.00;;;19.50
12854;BMP180;6495;51.808;7.478;2023-05-21T10:03:57;101195.00;;;19.60
12854;BMP180;6495;51.808;7.478;2023-05-21T10:13:42;101182.00;;;19.80
12854;BMP180;6495;51.808;7.478;2023-05-21T10:16:29;101175.00;;;19.90
12854;BMP180;6495;51.808;7.478;2023-05-21T10:28:09;101157.00;;;20.10
12854;BMP180;6495;51.808;7.478;2023-05-21T10:31:33;101153.00;;;20.20
12854;BMP180;6495;51.808;7.478;2023-05-21T10:34:31;101158.00;;;20.20
12854;BMP180;6495;51.808;7.478;2023-05-21T10:37:15;101163.00;;;20.30
12854;BMP180;6495;51.808;7.478;2023-05-21T10:39:47;101153.00;;;20.40
12854;BMP180;6495;51.808;7.478;2023-05-21T10:42:25;101154.00;;;20.40
12854;BMP180;6495;51.808;7.478;2023-05-21T10:45:55;101161.00;;;20.50
12854;BMP180;6495;51.808;7.478;2023-05-21T10:53:52;101149.00;;;20.80
12854;BMP180;6495;51.808;7.478;2023-05-21T11:23:50;101148.00;;;21.70
12854;BMP180;6495;51.808;7.478;2023-05-21T11:27:01;101156.00;;;21.80
12854;BMP180;6495;51.808;7.478;2023-05-21T11:29:44;101155.00;;;21.80
12854;BMP180;6495;51.808;7.478;2023-05-21T11:32:35;101149.00;;;21.90
12854;BMP180;6495;51.808;7.478;2023-05-21T11:35:05;101148.00;;;21.80
12854;BMP180;6495;51.808;7.478;2023-05-21T11:37:34;101144.00;;;21.90
12854;BMP180;6495;51.808;7.478;2023-05-21T11:40:19;101149.00;;;22.00
12854;BMP180;6495;51.808;7.478;2023-05-21T11:42:52;101132.00;;;22.10
12854;BMP180;6495;51.808;7.478;2023-05-21T11:45:22;101138.00;;;22.10
12854;BMP180;6495;51.808;7.478;2023-05-21T11:47:57;101141.00;;;22.10
12854;BMP180;6495;51.808;7.478;2023-05-21T11:50:26;101136.00;;;22.10
12854;BMP180;6495;51.808;7.478;2023-05-21T11:52:58;101133.00;;;22.10
12854;BMP180;6495;51.808;7.478;2023-05-21T11:55:36;101140.00;;;22.20
12854;BMP180;6495;51.808;7.478;2023-05-21T11:58:06;101135.00;;;22.20
12854;BMP180;6495;51.808;7.478;2023-05-21T12:00:40;101143.00;;;22.20
12854;BMP180;6495;51.808;7.478;2023-05-21T12:03:13;101134.00;;;22.30
12854;BMP180;6495;51.808;7.478;2023-05-21T12:06:03;101142.00;;;22.40
12854;BMP180;6495;51.808;7.478;2023-05-21T12:08:40;101143.00;;;22.50
12854;BMP180;6495;51.808;7.478;2023-05-21T12:11:20;101142.00;;;22.50
12854;BMP180;6495;51.808;7.478;2023-05-21T12:13:51;101140.00;;;22.50
12854;BMP180;6495;51.808;7.478;2023-05-21T12:16:30;101137.00;;;22.60
12854;BMP180;6495;51.808;7.478;2023-05-21T12:23:04;101134.00;;;22.60
12854;BMP180;6495;51.808;7.478;2023-05-21T12:26:01;101136.00;;;22.80
12854;BMP180;6495;51.808;7.478;2023-05-21T12:28:32;101138.00;;;22.90
12854;BMP180;6495;51.808;7.478;2023-05-21T12:31:00;101140.00;;;23.00
12854;BMP180;6495;51.808;7.478;2023-05-21T12:33:38;101141.00;;;23.10
12854;BMP180;6495;51.808;7.478;2023-05-21T12:37:20;101144.00;;;23.20
12854;BMP180;6495;51.808;7.478;2023-05-21T12:39:56;101140.00;;;23.20
12854;BMP180;6495;51.808;7.478;2023-05-21T12:42:28;101147.00;;;23.20
12854;BMP180;6495;51.808;7.478;2023-05-21T12:44:59;101141.00;;;23.20
12854;BMP180;6495;51.808;7.478;2023-05-21T12:47:29;101140.00;;;23.20
12854;BMP180;6495;51.808;7.478;2023-05-21T12:49:58;101136.00;;;23.30
12854;BMP180;6495;51.808;7.478;2023-05-21T12:52:27;101133.00;;;23.30
12854;BMP180;6495;51.808;7.478;2023-05-21T12:54:57;101137.00;;;23.30
12854;BMP180;6495;51.808;7.478;2023-05-21T12:57:34;101129.00;;;23.30
12854;BMP180;6495;51.808;7.478;2023-05-21T13:00:07;101123.00;;;23.30
12854;BMP180;6495;51.808;7.478;2023-05-21T13:02:39;101115.00;;;23.30
12854;BMP180;6495;51.808;7.478;2023-05-21T13:05:14;101121.00;;;23.40
12854;BMP180;6495;51.808;7.478;2023-05-21T13:07:44;101129.00;;;23.40
12854;BMP180;6495;51.808;7.478;2023-05-21T13:10:14;101121.00;;;23.50
12854;BMP180;6495;51.808;7.478;2023-05-21T13:12:44;101114.00;;;23.60
12854;BMP180;6495;51.808;7.478;2023-05-21T13:15:14;101113.00;;;23.60
12854;BMP180;6495;51.808;7.478;2023-05-21T13:17:43;101105.00;;;23.60
12854;BMP180;6495;51.808;7.478;2023-05-21T13:20:18;101111.00;;;23.70
12854;BMP180;6495;51.808;7.478;2023-05-21T13:22:50;101111.00;;;23.70
12854;BMP180;6495;51.808;7.478;2023-05-21T13:25:21;101114.00;;;23.80
12854;BMP180;6495;51.808;7.478;2023-05-21T13:27:52;101117.00;;;23.90
12854;BMP180;6495;51.808;7.478;2023-05-21T13:30:25;101115.00;;;24.00
12854;BMP180;6495;51.808;7.478;2023-05-21T13:32:53;101111.00;;;24.00
12854;BMP180;6495;51.808;7.478;2023-05-21T13:35:22;101113.00;;;23.90
12854;BMP180;6495;51.808;7.478;2023-05-21T13:37:51;101113.00;;;24.00
12854;BMP180;6495;51.808;7.478;2023-05-21T13:40:28;101109.00;;;24.00
12854;BMP180;6495;51.808;7.478;2023-05-21T13:42:58;101108.00;;;24.10
12854;BMP180;6495;51.808;7.478;2023-05-21T13:45:30;101099.00;;;24.10
12854;BMP180;6495;51.808;7.478;2023-05-21T13:48:04;101096.00;;;24.20
12854;BMP180;6495;51.808;7.478;2023-05-21T13:50:38;101104.00;;;24.20
12854;BMP180;6495;51.808;7.478;2023-05-21T13:53:11;101102.00;;;24.20
12854;BMP180;6495;51.808;7.478;2023-05-21T13:55:44;101100.00;;;24.20
12854;BMP180;6495;51.808;7.478;2023-05-21T13:58:15;101092.00;;;24.30
12854;BMP180;6495;51.808;7.478;2023-05-21T14:00:50;101087.00;;;24.30
12854;BMP180;6495;51.808;7.478;2023-05-21T14:03:19;101091.00;;;24.40
12854;BMP180;6495;51.808;7.478;2023-05-21T14:05:49;101092.00;;;24.40
12854;BMP180;6495;51.808;7.478;2023-05-21T14:08:20;101082.00;;;24.50
12854;BMP180;6495;51.808;7.478;2023-05-21T14:10:49;101082.00;;;24.60
12854;BMP180;6495;51.808;7.478;2023-05-21T14:13:17;101081.00;;;24.60
12854;BMP180;6495;51.808;7.478;2023-05-21T14:15:49;101085.00;;;24.70
12854;BMP180;6495;51.808;7.478;2023-05-21T14:18:17;101083.00;;;24.80
12854;BMP180;6495;51.808;7.478;2023-05-21T14:20:49;101067.00;;;24.90
12854;BMP180;6495;51.808;7.478;2023-05-21T14:23:21;101058.00;;;24.90
12854;BMP180;6495;51.808;7.478;2023-05-21T14:25:49;101067.00;;;25.00
12854;BMP180;6495;51.808;7.478;2023-05-21T14:28:18;101068.00;;;25.10
12854;BMP180;6495;51.808;7.478;2023-05-21T14:30:53;101060.00;;;25.20
12854;BMP180;6495;51.808;7.478;2023-05-21T14:33:21;101056.00;;;25.30
12854;BMP180;6495;51.808;7.478;2023-05-21T14:35:51;101056.00;;;25.40
12854;BMP180;6495;51.808;7.478;2023-05-21T14:38:20;101047.00;;;25.50
12854;BMP180;6495;51.808;7.478;2023-05-21T14:40:49;101054.00;;;25.40
12854;BMP180;6495;51.808;7.478;2023-05-21T14:43:18;101052.00;;;25.40
12854;BMP180;6495;51.808;7.478;2023-05-21T14:45:49;101059.00;;;25.50
12854;BMP180;6495;51.808;7.478;2023-05-21T14:48:19;101054.00;;;25.60
12854;BMP180;6495;51.808;7.478;2023-05-21T14:50:52;101052.00;;;25.70
12854;BMP180;6495;51.808;7.478;2023-05-21T14:56:56;101067.00;;;25.70
12854;BMP180;6495;51.808;7.478;2023-05-21T14:59:28;101068.00;;;25.80
12854;BMP180;6495;51.808;7.478;2023-05-21T15:02:25;101058.00;;;25.80
12854;BMP180;6495;51.808;7.478;2023-05-21T15:05:05;101056.00;;;25.70
12854;BMP180;6495;51.808;7.478;2023-05-21T15:07:34;101063.00;;;25.70
12854;BMP180;6495;51.808;7.478;2023-05-21T15:14:34;101059.00;;;25.50
12854;BMP180;6495;51.808;7.478;2023-05-21T15:17:04;101056.00;;;25.40
12854;BMP180;6495;51.808;7.478;2023-05-21T15:19:32;101062.00;;;25.50
12854;BMP180;6495;51.808;7.478;2023-05-21T15:22:09;101067.00;;;25.70
12854;BMP180;6495;51.808;7.478;2023-05-21T15:24:37;101071.00;;;25.80
12854;BMP180;6495;51.808;7.478;2023-05-21T15:34:59;101074.00;;;25.80
12854;BMP180;6495;51.808;7.478;2023-05-21T15:37:28;101077.00;;;25.80
12854;BMP180;6495;51.808;7.478;2023-05-21T15:40:53;101079.00;;;25.80
12854;BMP180;6495;51.808;7.478;2023-05-21T15:44:33;101078.00;;;25.70
12854;BMP180;6495;51.808;7.478;2023-05-21T15:47:25;101074.00;;;25.70
12854;BMP180;6495;51.808;7.478;2023-05-21T15:59:28;101061.00;;;25.60
12854;BMP180;6495;51.808;7.478;2023-05-21T16:25:01;101038.00;;;25.30
12854;BMP180;6495;51.808;7.478;2023-05-21T17:30:08;101001.00;;;25.70
12854;BMP180;6495;51.808;7.478;2023-05-21T17:32:38;101004.00;;;25.80
12854;BMP180;6495;51.808;7.478;2023-05-21T17:35:08;100999.00;;;25.90
12854;BMP180;6495;51.808;7.478;2023-05-21T17:37:37;100998.00;;;25.90
12854;BMP180;6495;51.808;7.478;2023-05-21T17:40:08;101005.00;;;25.90
12854;BMP180;6495;51.808;7.478;2023-05-21T17:42:42;100991.00;;;25.80
12854;BMP180;6495;51.808;7.478;2023-05-21T17:45:15;101000.00;;;25.80
12854;BMP180;6495;51.808;7.478;2023-05-21T17:47:56;100999.00;;;25.70
12854;BMP180;6495;51.808;7.478;2023-05-21T17:55:00;101004.00;;;25.60
12854;BMP180;6495;51.808;7.478;2023-05-21T17:57:32;101007.00;;;25.50
12854;BMP180;6495;51.808;7.478;2023-05-21T18:00:03;101001.00;;;25.50
12854;BMP180;6495;51.808;7.478;2023-05-21T18:03:42;101004.00;;;25.50
12854;BMP180;6495;51.808;7.478;2023-05-21T18:12:06;101005.00;;;25.50
12854;BMP180;6495;51.808;7.478;2023-05-21T18:14:34;101006.00;;;25.50
12854;BMP180;6495;51.808;7.478;2023-05-21T18:17:04;101006.00;;;25.50
12854;BMP180;6495;51.808;7.478;2023-05-21T18:19:45;101011.00;;;25.50
12854;BMP180;6495;51.808;7.478;2023-05-21T18:22:33;101006.00;;;25.50
12854;BMP180;6495;51.808;7.478;2023-05-21T18:25:08;101004.00;;;25.50
12854;BMP180;6495;51.808;7.478;2023-05-21T18:28:12;101003.00;;;25.50
12854;BMP180;6495;51.808;7.478;2023-05-21T18:30:41;101013.00;;;25.40
12854;BMP180;6495;51.808;7.478;2023-05-21T18:33:17;101005.00;;;25.40